sensor_id;sensor_type;location;lat;lon;timestamp;temperature;humidity
9486;DHT22;4781;48.776;9.200;2024-03-06T00:01:48;6.50;99.90
9486;DHT22;4781;48.776;9.200;2024-03-06T00:04:16;6.50;99.90
9486;DHT22;4781;48.776;9.200;2024-03-06T00:06:45;6.50;99.90
9486;DHT22;4781;48.776;9.200;2024-03-06T00:09:13;6.50;99.90
9486;DHT22;4781;48.776;9.200;2024-03-06T00:11:42;6.50;99.90
9486;DHT22;4781;48.776;9.200;2024-03-06T00:14:10;6.50;99.90
9486;DHT22;4781;48.776;9.200;2024-03-06T00:16:40;6.50;99.90
9486;DHT22;4781;48.776;9.200;2024-03-06T00:19:09;6.50;99.90
9486;DHT22;4781;48.776;9.200;2024-03-06T00:21:38;6.50;99.90
9486;DHT22;4781;48.776;9.200;2024-03-06T00:24:07;6.50;99.90
9486;DHT22;4781;48.776;9.200;2024-03-06T00:26:35;6.50;99.90
9486;DHT22;4781;48.776;9.200;2024-03-06T00:29:03;6.50;99.90
9486;DHT22;4781;48.776;9.200;2024-03-06T00:31:32;6.50;99.90
9486;DHT22;4781;48.776;9.200;2024-03-06T00:34:00;6.60;99.90
9486;DHT22;4781;48.776;9.200;2024-03-06T00:36:29;6.60;99.90
9486;DHT22;4781;48.776;9.200;2024-03-06T00:38:57;6.60;99.90
9486;DHT22;4781;48.776;9.200;2024-03-06T00:41:25;6.60;99.90
9486;DHT22;4781;48.776;9.200;2024-03-06T00:43:54;6.60;99.90
9486;DHT22;4781;48.776;9.200;2024-03-06T00:46:22;6.60;99.90
9486;DHT22;4781;48.776;9.200;2024-03-06T00:48:51;6.60;99.90
9486;DHT22;4781;48.776;9.200;2024-03-06T00:51:19;6.60;99.90
9486;DHT22;4781;48.776;9.200;2024-03-06T00:53:48;6.60;99.90
9486;DHT22;4781;48.776;9.200;2024-03-06T00:56:16;6.60;99.90
9486;DHT22;4781;48.776;9.200;2024-03-06T00:58:44;6.60;99.90
9486;DHT22;4781;48.776;9.200;2024-03-06T01:01:15;6.60;99.90
9486;DHT22;4781;48.776;9.200;2024-03-06T01:03:45;6.60;99.90
9486;DHT22;4781;48.776;9.200;2024-03-06T01:06:14;6.50;99.90
9486;DHT22;4781;48.776;9.200;2024-03-06T01:08:42;6.50;99.90
9486;DHT22;4781;48.776;9.200;2024-03-06T01:11:12;6.50;99.90
9486;DHT22;4781;48.776;9.200;2024-03-06T01:13:43;6.50;99.90
9486;DHT22;4781;48.776;9.200;2024-03-06T01:16:11;6.50;99.90
9486;DHT22;4781;48.776;9.200;2024-03-06T01:18:39;6.60;99.90
9486;DHT22;4781;48.776;9.200;2024-03-06T01:21:08;6.50;99.90
9486;DHT22;4781;48.776;9.200;2024-03-06T01:23:36;6.60;99.90
9486;DHT22;4781;48.776;9.200;2024-03-06T01:26:05;6.50;99.90
9486;DHT22;4781;48.776;9.200;2024-03-06T01:28:33;6.50;99.90
9486;DHT22;4781;48.776;9.200;2024-03-06T01:31:03;6.50;99.90
9486;DHT22;4781;48.776;9.200;2024-03-06T01:33:33;6.60;99.90
9486;DHT22;4781;48.776;9.200;2024-03-06T01:36:01;6.50;99.90
9486;DHT22;4781;48.776;9.200;2024-03-06T01:38:29;6.50;99.90
9486;DHT22;4781;48.776;9.200;2024-03-06T01:40:58;6.50;99.90
9486;DHT22;4781;48.776;9.200;2024-03-06T01:43:26;6.50;99.90
9486;DHT22;4781;48.776;9.200;2024-03-06T01:45:55;6.50;99.90
9486;DHT22;4781;48.776;9.200;2024-03-06T01:48:28;6.50;99.90
9486;DHT22;4781;48.776;9.200;2024-03-06T01:51:00;6.40;99.90
9486;DHT22;4781;48.776;9.200;2024-03-06T01:53:32;6.40;99.90
9486;DHT22;4781;48.776;9.200;2024-03-06T01:56:02;6.40;99.90
9486;DHT22;4781;48.776;9.200;2024-03-06T01:58:32;6.40;99.90
9486;DHT22;4781;48.776;9.200;2024-03-06T02:01:01;6.50;99.90
9486;DHT22;4781;48.776;9.200;2024-03-06T02:03:31;6.40;99.90
9486;DHT22;4781;48.776;9.200;2024-03-06T02:06:00;6.40;99.90
9486;DHT22;4781;48.776;9.200;2024-03-06T02:08:30;6.40;99.90
9486;DHT22;4781;48.776;9.200;2024-03-06T02:10:59;6.50;99.90
9486;DHT22;4781;48.776;9.200;2024-03-06T02:13:30;6.40;99.90
9486;DHT22;4781;48.776;9.200;2024-03-06T02:15:58;6.40;99.90
9486;DHT22;4781;48.776;9.200;2024-03-06T02:18:27;6.50;99.90
9486;DHT22;4781;48.776;9.200;2024-03-06T02:20:55;6.50;99.90
9486;DHT22;4781;48.776;9.200;2024-03-06T02:23:23;6.50;99.90
9486;DHT22;4781;48.776;9.200;2024-03-06T02:25:52;6.40;99.90
9486;DHT22;4781;48.776;9.200;2024-03-06T02:28:20;6.40;99.90
9486;DHT22;4781;48.776;9.200;2024-03-06T02:30:52;6.50;99.90
9486;DHT22;4781;48.776;9.200;2024-03-06T02:33:20;6.40;99.90
9486;DHT22;4781;48.776;9.200;2024-03-06T02:35:48;6.40;99.90
9486;DHT22;4781;48.776;9.200;2024-03-06T02:38:17;6.50;99.90
9486;DHT22;4781;48.776;9.200;2024-03-06T02:40:45;6.40;99.90
9486;DHT22;4781;48.776;9.200;2024-03-06T02:43:14;6.50;99.90
9486;DHT22;4781;48.776;9.200;2024-03-06T02:45:43;6.50;99.90
9486;DHT22;4781;48.776;9.200;2024-03-06T02:48:11;6.50;99.90
9486;DHT22;4781;48.776;9.200;2024-03-06T02:50:40;6.40;99.90
9486;DHT22;4781;48.776;9.200;2024-03-06T02:53:08;6.40;99.90
9486;DHT22;4781;48.776;9.200;2024-03-06T02:55:36;6.40;99.90
9486;DHT22;4781;48.776;9.200;2024-03-06T02:58:05;6.50;99.90
9486;DHT22;4781;48.776;9.200;2024-03-06T03:00:33;6.50;99.90
9486;DHT22;4781;48.776;9.200;2024-03-06T03:03:01;6.40;99.90
9486;DHT22;4781;48.776;9.200;2024-03-06T03:05:30;6.50;99.90
9486;DHT22;4781;48.776;9.200;2024-03-06T03:08:00;6.50;99.90
9486;DHT22;4781;48.776;9.200;2024-03-06T03:10:30;6.40;99.90
9486;DHT22;4781;48.776;9.200;2024-03-06T03:12:58;6.40;99.90
9486;DHT22;4781;48.776;9.200;2024-03-06T03:15:26;6.40;99.90
9486;DHT22;4781;48.776;9.200;2024-03-06T03:17:55;6.40;99.90
9486;DHT22;4781;48.776;9.200;2024-03-06T03:20:23;6.40;99.90
9486;DHT22;4781;48.776;9.200;2024-03-06T03:22:52;6.40;99.90
9486;DHT22;4781;48.776;9.200;2024-03-06T03:25:20;6.40;99.90
9486;DHT22;4781;48.776;9.200;2024-03-06T03:27:58;6.40;99.90
9486;DHT22;4781;48.776;9.200;2024-03-06T03:30:21;6.40;99.90
9486;DHT22;4781;48.776;9.200;2024-03-06T03:32:50;6.40;99.90
9486;DHT22;4781;48.776;9.200;2024-03-06T03:35:18;6.40;99.90
9486;DHT22;4781;48.776;9.200;2024-03-06T03:37:48;6.40;99.90
9486;DHT22;4781;48.776;9.200;2024-03-06T03:40:18;6.40;99.90
9486;DHT22;4781;48.776;9.200;2024-03-06T03:42:47;6.40;99.90
9486;DHT22;4781;48.776;9.200;2024-03-06T03:45:15;6.40;99.90
9486;DHT22;4781;48.776;9.200;2024-03-06T03:47:44;6.40;99.90
9486;DHT22;4781;48.776;9.200;2024-03-06T03:50:12;6.40;99.90
9486;DHT22;4781;48.776;9.200;2024-03-06T03:52:41;6.40;99.90
9486;DHT22;4781;48.776;9.200;2024-03-06T03:55:10;6.40;99.90
9486;DHT22;4781;48.776;9.200;2024-03-06T03:57:38;6.40;99.90
9486;DHT22;4781;48.776;9.200;2024-03-06T04:00:07;6.40;99.90
9486;DHT22;4781;48.776;9.200;2024-03-06T04:02:37;6.30;99.90
9486;DHT22;4781;48.776;9.200;2024-03-06T04:05:07;6.30;99.90
9486;DHT22;4781;48.776;9.200;2024-03-06T04:07:39;6.30;99.90
9486;DHT22;4781;48.776;9.200;2024-03-06T04:10:07;6.30;99.90
9486;DHT22;4781;48.776;9.200;2024-03-06T04:12:37;6.30;99.90
9486;DHT22;4781;48.776;9.200;2024-03-06T04:15:06;6.30;99.90
9486;DHT22;4781;48.776;9.200;2024-03-06T04:17:35;6.20;99.90
9486;DHT22;4781;48.776;9.200;2024-03-06T04:20:03;6.20;99.90
9486;DHT22;4781;48.776;9.200;2024-03-06T04:22:33;6.30;99.90
9486;DHT22;4781;48.776;9.200;2024-03-06T04:25:01;6.30;99.90
9486;DHT22;4781;48.776;9.200;2024-03-06T04:27:31;6.20;99.90
9486;DHT22;4781;48.776;9.200;2024-03-06T04:30:00;6.20;99.90
9486;DHT22;4781;48.776;9.200;2024-03-06T04:32:28;6.20;99.90
9486;DHT22;4781;48.776;9.200;2024-03-06T04:34:57;6.20;99.90
9486;DHT22;4781;48.776;9.200;2024-03-06T04:37:25;6.20;99.90
9486;DHT22;4781;48.776;9.200;2024-03-06T04:39:56;6.20;99.90
9486;DHT22;4781;48.776;9.200;2024-03-06T04:42:24;6.20;99.90
9486;DHT22;4781;48.776;9.200;2024-03-06T04:44:52;6.10;99.90
9486;DHT22;4781;48.776;9.200;2024-03-06T04:47:23;6.10;99.90
9486;DHT22;4781;48.776;9.200;2024-03-06T04:49:51;6.10;99.90
9486;DHT22;4781;48.776;9.200;2024-03-06T04:52:20;6.10;99.90
9486;DHT22;4781;48.776;9.200;2024-03-06T04:54:48;6.10;99.90
9486;DHT22;4781;48.776;9.200;2024-03-06T04:57:16;6.20;99.90
9486;DHT22;4781;48.776;9.200;2024-03-06T04:59:45;6.10;99.90
9486;DHT22;4781;48.776;9.200;2024-03-06T05:02:13;6.10;99.90
9486;DHT22;4781;48.776;9.200;2024-03-06T05:04:42;6.10;99.90
9486;DHT22;4781;48.776;9.200;2024-03-06T05:07:10;6.10;99.90
9486;DHT22;4781;48.776;9.200;2024-03-06T05:09:39;6.10;99.90
9486;DHT22;4781;48.776;9.200;2024-03-06T05:12:08;6.10;99.90
9486;DHT22;4781;48.776;9.200;2024-03-06T05:14:37;6.10;99.90
9486;DHT22;4781;48.776;9.200;2024-03-06T05:17:05;6.00;99.90
9486;DHT22;4781;48.776;9.200;2024-03-06T05:19:33;6.00;99.90
9486;DHT22;4781;48.776;9.200;2024-03-06T05:22:02;5.90;99.90
9486;DHT22;4781;48.776;9.200;2024-03-06T05:24:32;5.90;99.90
9486;DHT22;4781;48.776;9.200;2024-03-06T05:27:00;5.80;99.90
9486;DHT22;4781;48.776;9.200;2024-03-06T05:29:28;5.80;99.90
9486;DHT22;4781;48.776;9.200;2024-03-06T05:31:57;5.90;99.90
9486;DHT22;4781;48.776;9.200;2024-03-06T05:34:25;5.90;99.90
9486;DHT22;4781;48.776;9.200;2024-03-06T05:36:53;5.80;99.90
9486;DHT22;4781;48.776;9.200;2024-03-06T05:39:22;5.90;99.90
9486;DHT22;4781;48.776;9.200;2024-03-06T05:41:50;5.80;99.90
9486;DHT22;4781;48.776;9.200;2024-03-06T05:44:19;5.80;99.90
9486;DHT22;4781;48.776;9.200;2024-03-06T05:46:47;5.70;99.90
9486;DHT22;4781;48.776;9.200;2024-03-06T05:49:16;5.70;99.90
9486;DHT22;4781;48.776;9.200;2024-03-06T05:51:44;5.70;99.90
9486;DHT22;4781;48.776;9.200;2024-03-06T05:54:12;5.70;99.90
9486;DHT22;4781;48.776;9.200;2024-03-06T05:56:41;5.70;99.90
9486;DHT22;4781;48.776;9.200;2024-03-06T05:59:09;5.70;99.90
9486;DHT22;4781;48.776;9.200;2024-03-06T06:01:37;5.70;99.90
9486;DHT22;4781;48.776;9.200;2024-03-06T06:04:07;5.70;99.90
9486;DHT22;4781;48.776;9.200;2024-03-06T06:06:36;5.70;99.90
9486;DHT22;4781;48.776;9.200;2024-03-06T06:09:05;5.70;99.90
9486;DHT22;4781;48.776;9.200;2024-03-06T06:11:33;5.70;99.90
9486;DHT22;4781;48.776;9.200;2024-03-06T06:14:02;5.70;99.90
9486;DHT22;4781;48.776;9.200;2024-03-06T06:16:38;5.70;99.90
9486;DHT22;4781;48.776;9.200;2024-03-06T06:19:07;5.70;99.90
9486;DHT22;4781;48.776;9.200;2024-03-06T06:21:36;5.70;99.90
9486;DHT22;4781;48.776;9.200;2024-03-06T06:24:04;5.70;99.90
9486;DHT22;4781;48.776;9.200;2024-03-06T06:26:33;5.70;99.90
9486;DHT22;4781;48.776;9.200;2024-03-06T06:29:02;5.80;99.90
9486;DHT22;4781;48.776;9.200;2024-03-06T06:31:30;5.80;99.90
9486;DHT22;4781;48.776;9.200;2024-03-06T06:33:58;5.90;99.90
9486;DHT22;4781;48.776;9.200;2024-03-06T06:36:27;5.90;99.90
9486;DHT22;4781;48.776;9.200;2024-03-06T06:38:56;5.90;99.90
9486;DHT22;4781;48.776;9.200;2024-03-06T06:41:24;5.90;99.90
9486;DHT22;4781;48.776;9.200;2024-03-06T06:43:53;5.90;99.90
9486;DHT22;4781;48.776;9.200;2024-03-06T06:46:21;5.90;99.90
9486;DHT22;4781;48.776;9.200;2024-03-06T06:48:49;5.90;99.90
9486;DHT22;4781;48.776;9.200;2024-03-06T06:51:18;6.00;99.90
9486;DHT22;4781;48.776;9.200;2024-03-06T06:53:47;5.90;99.90
9486;DHT22;4781;48.776;9.200;2024-03-06T06:56:15;5.90;99.90
9486;DHT22;4781;48.776;9.200;2024-03-06T06:58:44;5.90;99.90
9486;DHT22;4781;48.776;9.200;2024-03-06T07:01:12;6.00;99.90
9486;DHT22;4781;48.776;9.200;2024-03-06T07:03:42;5.90;99.90
9486;DHT22;4781;48.776;9.200;2024-03-06T07:06:11;6.00;99.90
9486;DHT22;4781;48.776;9.200;2024-03-06T07:08:40;6.00;99.90
9486;DHT22;4781;48.776;9.200;2024-03-06T07:11:08;6.00;99.90
9486;DHT22;4781;48.776;9.200;2024-03-06T07:13:37;6.00;99.90
9486;DHT22;4781;48.776;9.200;2024-03-06T07:16:06;6.00;99.90
9486;DHT22;4781;48.776;9.200;2024-03-06T07:18:35;6.00;99.90
9486;DHT22;4781;48.776;9.200;2024-03-06T07:21:04;6.00;99.90
9486;DHT22;4781;48.776;9.200;2024-03-06T07:23:32;6.00;99.90
9486;DHT22;4781;48.776;9.200;2024-03-06T07:26:00;6.10;99.90
9486;DHT22;4781;48.776;9.200;2024-03-06T07:28:29;6.10;99.90
9486;DHT22;4781;48.776;9.200;2024-03-06T07:30:57;6.10;99.90
9486;DHT22;4781;48.776;9.200;2024-03-06T07:33:25;6.00;99.90
9486;DHT22;4781;48.776;9.200;2024-03-06T07:35:54;6.00;99.90
9486;DHT22;4781;48.776;9.200;2024-03-06T07:38:23;6.00;99.90
9486;DHT22;4781;48.776;9.200;2024-03-06T07:40:51;6.10;99.90
9486;DHT22;4781;48.776;9.200;2024-03-06T07:43:20;6.10;99.90
9486;DHT22;4781;48.776;9.200;2024-03-06T07:45:49;6.00;99.90
9486;DHT22;4781;48.776;9.200;2024-03-06T07:48:18;6.10;99.90
9486;DHT22;4781;48.776;9.200;2024-03-06T07:50:47;6.00;99.90
9486;DHT22;4781;48.776;9.200;2024-03-06T07:53:15;6.10;99.90
9486;DHT22;4781;48.776;9.200;2024-03-06T07:55:43;6.10;99.90
9486;DHT22;4781;48.776;9.200;2024-03-06T07:58:12;6.10;99.90
9486;DHT22;4781;48.776;9.200;2024-03-06T08:00:40;6.20;99.90
9486;DHT22;4781;48.776;9.200;2024-03-06T08:03:08;6.10;99.90
9486;DHT22;4781;48.776;9.200;2024-03-06T08:05:39;6.10;99.90
9486;DHT22;4781;48.776;9.200;2024-03-06T08:08:07;6.10;99.90
9486;DHT22;4781;48.776;9.200;2024-03-06T08:10:35;6.10;99.90
9486;DHT22;4781;48.776;9.200;2024-03-06T08:13:04;6.20;99.90
9486;DHT22;4781;48.776;9.200;2024-03-06T08:15:32;6.20;99.90
9486;DHT22;4781;48.776;9.200;2024-03-06T08:18:01;6.20;99.90
9486;DHT22;4781;48.776;9.200;2024-03-06T08:20:30;6.20;99.90
9486;DHT22;4781;48.776;9.200;2024-03-06T08:25:47;6.20;99.90
9486;DHT22;4781;48.776;9.200;2024-03-06T08:28:16;6.20;99.90
9486;DHT22;4781;48.776;9.200;2024-03-06T08:30:44;6.30;99.90
9486;DHT22;4781;48.776;9.200;2024-03-06T08:33:13;6.30;99.90
9486;DHT22;4781;48.776;9.200;2024-03-06T08:35:42;6.30;99.90
9486;DHT22;4781;48.776;9.200;2024-03-06T08:38:10;6.30;99.90
9486;DHT22;4781;48.776;9.200;2024-03-06T08:40:39;6.30;99.90
9486;DHT22;4781;48.776;9.200;2024-03-06T08:43:09;6.30;99.90
9486;DHT22;4781;48.776;9.200;2024-03-06T08:45:37;6.40;99.90
9486;DHT22;4781;48.776;9.200;2024-03-06T08:48:06;6.40;99.90
9486;DHT22;4781;48.776;9.200;2024-03-06T08:50:35;6.40;99.90
9486;DHT22;4781;48.776;9.200;2024-03-06T08:53:03;6.40;99.90
9486;DHT22;4781;48.776;9.200;2024-03-06T08:55:32;6.40;99.90
9486;DHT22;4781;48.776;9.200;2024-03-06T08:58:00;6.40;99.90
9486;DHT22;4781;48.776;9.200;2024-03-06T09:00:28;6.50;99.90
9486;DHT22;4781;48.776;9.200;2024-03-06T09:02:57;6.50;99.90
9486;DHT22;4781;48.776;9.200;2024-03-06T09:05:25;6.50;99.90
9486;DHT22;4781;48.776;9.200;2024-03-06T09:07:54;6.40;99.90
9486;DHT22;4781;48.776;9.200;2024-03-06T09:10:24;6.40;99.90
9486;DHT22;4781;48.776;9.200;2024-03-06T09:12:52;6.40;99.90
9486;DHT22;4781;48.776;9.200;2024-03-06T09:15:20;6.50;99.90
9486;DHT22;4781;48.776;9.200;2024-03-06T09:17:49;6.50;99.90
9486;DHT22;4781;48.776;9.200;2024-03-06T09:20:17;6.50;99.90
9486;DHT22;4781;48.776;9.200;2024-03-06T09:22:45;6.50;99.90
9486;DHT22;4781;48.776;9.200;2024-03-06T09:25:14;6.50;99.90
9486;DHT22;4781;48.776;9.200;2024-03-06T09:27:43;6.50;99.90
9486;DHT22;4781;48.776;9.200;2024-03-06T09:30:12;6.60;99.90
9486;DHT22;4781;48.776;9.200;2024-03-06T09:32:42;6.70;99.90
9486;DHT22;4781;48.776;9.200;2024-03-06T09:35:10;6.70;99.90
9486;DHT22;4781;48.776;9.200;2024-03-06T09:37:40;6.70;99.90
9486;DHT22;4781;48.776;9.200;2024-03-06T09:40:10;6.70;99.90
9486;DHT22;4781;48.776;9.200;2024-03-06T09:42:39;6.70;99.90
9486;DHT22;4781;48.776;9.200;2024-03-06T09:45:08;6.60;99.90
9486;DHT22;4781;48.776;9.200;2024-03-06T09:47:37;6.70;99.90
9486;DHT22;4781;48.776;9.200;2024-03-06T09:50:08;6.60;99.90
9486;DHT22;4781;48.776;9.200;2024-03-06T09:52:37;6.60;99.90
9486;DHT22;4781;48.776;9.200;2024-03-06T09:55:08;6.60;99.90
9486;DHT22;4781;48.776;9.200;2024-03-06T09:57:36;6.60;99.90
9486;DHT22;4781;48.776;9.200;2024-03-06T10:00:07;6.60;99.90
9486;DHT22;4781;48.776;9.200;2024-03-06T10:02:40;6.60;99.90
9486;DHT22;4781;48.776;9.200;2024-03-06T10:05:23;6.60;99.90
9486;DHT22;4781;48.776;9.200;2024-03-06T10:07:57;6.60;99.90
9486;DHT22;4781;48.776;9.200;2024-03-06T10:10:22;6.60;99.90
9486;DHT22;4781;48.776;9.200;2024-03-06T10:12:50;6.60;99.90
9486;DHT22;4781;48.776;9.200;2024-03-06T10:15:19;6.60;99.90
9486;DHT22;4781;48.776;9.200;2024-03-06T10:17:48;6.50;99.90
9486;DHT22;4781;48.776;9.200;2024-03-06T10:20:23;6.60;99.90
9486;DHT22;4781;48.776;9.200;2024-03-06T10:22:54;6.60;99.90
9486;DHT22;4781;48.776;9.200;2024-03-06T10:25:23;6.60;99.90
9486;DHT22;4781;48.776;9.200;2024-03-06T10:28:11;6.60;99.90
9486;DHT22;4781;48.776;9.200;2024-03-06T10:30:41;6.60;99.90
9486;DHT22;4781;48.776;9.200;2024-03-06T10:33:13;6.60;99.90
9486;DHT22;4781;48.776;9.200;2024-03-06T10:35:46;6.60;99.90
9486;DHT22;4781;48.776;9.200;2024-03-06T10:38:20;6.70;99.90
9486;DHT22;4781;48.776;9.200;2024-03-06T10:40:51;6.70;99.90
9486;DHT22;4781;48.776;9.200;2024-03-06T10:43:20;6.70;99.90
9486;DHT22;4781;48.776;9.200;2024-03-06T10:46:01;6.70;99.90
9486;DHT22;4781;48.776;9.200;2024-03-06T10:48:34;6.80;99.90
9486;DHT22;4781;48.776;9.200;2024-03-06T10:51:04;6.80;99.90
9486;DHT22;4781;48.776;9.200;2024-03-06T10:53:34;6.80;99.90
9486;DHT22;4781;48.776;9.200;2024-03-06T10:56:04;6.80;99.90
9486;DHT22;4781;48.776;9.200;2024-03-06T10:58:37;6.80;99.90
9486;DHT22;4781;48.776;9.200;2024-03-06T11:01:08;6.80;99.90
9486;DHT22;4781;48.776;9.200;2024-03-06T11:03:37;6.90;99.90
9486;DHT22;4781;48.776;9.200;2024-03-06T11:06:06;6.90;99.90
9486;DHT22;4781;48.776;9.200;2024-03-06T11:08:34;6.90;99.90
9486;DHT22;4781;48.776;9.200;2024-03-06T11:11:22;7.00;99.90
9486;DHT22;4781;48.776;9.200;2024-03-06T11:13:55;7.00;99.90
9486;DHT22;4781;48.776;9.200;2024-03-06T11:16:30;6.90;99.90
9486;DHT22;4781;48.776;9.200;2024-03-06T11:19:07;6.90;99.90
9486;DHT22;4781;48.776;9.200;2024-03-06T11:21:46;6.90;99.90
9486;DHT22;4781;48.776;9.200;2024-03-06T11:24:19;6.80;99.90
9486;DHT22;4781;48.776;9.200;2024-03-06T11:27:01;6.80;99.90
9486;DHT22;4781;48.776;9.200;2024-03-06T11:30:08;6.80;99.90
9486;DHT22;4781;48.776;9.200;2024-03-06T11:33:03;6.90;99.90
9486;DHT22;4781;48.776;9.200;2024-03-06T11:35:31;6.80;99.90
9486;DHT22;4781;48.776;9.200;2024-03-06T11:38:01;6.80;99.90
9486;DHT22;4781;48.776;9.200;2024-03-06T11:40:29;6.90;99.90
9486;DHT22;4781;48.776;9.200;2024-03-06T11:43:21;6.90;99.90
9486;DHT22;4781;48.776;9.200;2024-03-06T11:45:31;6.90;99.90
9486;DHT22;4781;48.776;9.200;2024-03-06T11:48:02;6.90;99.90
9486;DHT22;4781;48.776;9.200;2024-03-06T11:50:30;6.90;99.90
9486;DHT22;4781;48.776;9.200;2024-03-06T11:52:59;6.90;99.90
9486;DHT22;4781;48.776;9.200;2024-03-06T11:55:28;6.90;99.90
9486;DHT22;4781;48.776;9.200;2024-03-06T11:57:56;6.90;99.90
9486;DHT22;4781;48.776;9.200;2024-03-06T12:00:24;6.90;99.90
9486;DHT22;4781;48.776;9.200;2024-03-06T12:02:53;6.90;99.90
9486;DHT22;4781;48.776;9.200;2024-03-06T12:05:22;6.80;99.90
9486;DHT22;4781;48.776;9.200;2024-03-06T12:07:51;6.80;99.90
9486;DHT22;4781;48.776;9.200;2024-03-06T12:10:20;6.80;99.90
9486;DHT22;4781;48.776;9.200;2024-03-06T12:12:49;6.80;99.90
9486;DHT22;4781;48.776;9.200;2024-03-06T12:15:18;6.80;99.90
9486;DHT22;4781;48.776;9.200;2024-03-06T12:17:48;6.80;99.90
9486;DHT22;4781;48.776;9.200;2024-03-06T12:20:18;6.80;99.90
9486;DHT22;4781;48.776;9.200;2024-03-06T12:22:51;6.80;99.90
9486;DHT22;4781;48.776;9.200;2024-03-06T12:25:22;6.80;99.90
9486;DHT22;4781;48.776;9.200;2024-03-06T12:27:54;6.90;99.90
9486;DHT22;4781;48.776;9.200;2024-03-06T12:30:23;6.90;99.90
9486;DHT22;4781;48.776;9.200;2024-03-06T12:33:01;6.90;99.90
9486;DHT22;4781;48.776;9.200;2024-03-06T12:35:31;6.90;99.90
9486;DHT22;4781;48.776;9.200;2024-03-06T12:38:00;7.00;99.90
9486;DHT22;4781;48.776;9.200;2024-03-06T12:40:30;6.90;99.90
9486;DHT22;4781;48.776;9.200;2024-03-06T12:42:59;7.00;99.90
9486;DHT22;4781;48.776;9.200;2024-03-06T12:45:29;7.00;99.90
9486;DHT22;4781;48.776;9.200;2024-03-06T12:47:57;7.00;99.90
9486;DHT22;4781;48.776;9.200;2024-03-06T12:50:26;7.00;99.90
9486;DHT22;4781;48.776;9.200;2024-03-06T12:52:54;7.00;99.90
9486;DHT22;4781;48.776;9.200;2024-03-06T12:55:23;7.00;99.90
9486;DHT22;4781;48.776;9.200;2024-03-06T12:57:52;7.00;99.90
9486;DHT22;4781;48.776;9.200;2024-03-06T13:00:21;7.00;99.90
9486;DHT22;4781;48.776;9.200;2024-03-06T13:02:50;7.00;99.90
9486;DHT22;4781;48.776;9.200;2024-03-06T13:05:18;7.00;99.90
9486;DHT22;4781;48.776;9.200;2024-03-06T13:07:47;7.00;99.90
9486;DHT22;4781;48.776;9.200;2024-03-06T13:10:15;7.00;99.90
9486;DHT22;4781;48.776;9.200;2024-03-06T13:12:44;7.00;99.90
9486;DHT22;4781;48.776;9.200;2024-03-06T13:15:12;7.00;99.90
9486;DHT22;4781;48.776;9.200;2024-03-06T13:17:41;7.10;99.90
9486;DHT22;4781;48.776;9.200;2024-03-06T13:20:09;7.10;99.90
9486;DHT22;4781;48.776;9.200;2024-03-06T13:22:41;7.10;99.90
9486;DHT22;4781;48.776;9.200;2024-03-06T13:25:10;7.10;99.90
9486;DHT22;4781;48.776;9.200;2024-03-06T13:27:39;7.10;99.90
9486;DHT22;4781;48.776;9.200;2024-03-06T13:30:07;7.10;99.90
9486;DHT22;4781;48.776;9.200;2024-03-06T13:32:36;7.10;99.90
9486;DHT22;4781;48.776;9.200;2024-03-06T13:35:05;7.10;99.90
9486;DHT22;4781;48.776;9.200;2024-03-06T13:37:35;7.10;99.90
9486;DHT22;4781;48.776;9.200;2024-03-06T13:40:04;7.10;99.90
9486;DHT22;4781;48.776;9.200;2024-03-06T13:42:35;7.10;99.90
9486;DHT22;4781;48.776;9.200;2024-03-06T13:45:04;7.10;99.90
9486;DHT22;4781;48.776;9.200;2024-03-06T13:47:35;7.20;99.90
9486;DHT22;4781;48.776;9.200;2024-03-06T13:50:03;7.10;99.90
9486;DHT22;4781;48.776;9.200;2024-03-06T13:52:33;7.10;99.90
9486;DHT22;4781;48.776;9.200;2024-03-06T13:55:01;7.20;99.90
9486;DHT22;4781;48.776;9.200;2024-03-06T13:57:32;7.10;99.90
9486;DHT22;4781;48.776;9.200;2024-03-06T14:00:06;7.10;99.90
9486;DHT22;4781;48.776;9.200;2024-03-06T14:02:44;7.10;99.90
9486;DHT22;4781;48.776;9.200;2024-03-06T14:05:14;7.20;99.90
9486;DHT22;4781;48.776;9.200;2024-03-06T14:07:42;7.20;99.90
9486;DHT22;4781;48.776;9.200;2024-03-06T14:10:11;7.20;99.90
9486;DHT22;4781;48.776;9.200;2024-03-06T14:12:40;7.20;99.90
9486;DHT22;4781;48.776;9.200;2024-03-06T14:15:08;7.20;99.90
9486;DHT22;4781;48.776;9.200;2024-03-06T14:17:39;7.20;99.90
9486;DHT22;4781;48.776;9.200;2024-03-06T14:20:08;7.20;99.90
9486;DHT22;4781;48.776;9.200;2024-03-06T14:22:38;7.20;99.90
9486;DHT22;4781;48.776;9.200;2024-03-06T14:25:07;7.20;99.90
9486;DHT22;4781;48.776;9.200;2024-03-06T14:27:37;7.10;99.90
9486;DHT22;4781;48.776;9.200;2024-03-06T14:30:06;7.10;99.90
9486;DHT22;4781;48.776;9.200;2024-03-06T14:32:35;7.20;99.90
9486;DHT22;4781;48.776;9.200;2024-03-06T14:35:04;7.20;99.90
9486;DHT22;4781;48.776;9.200;2024-03-06T14:37:33;7.10;99.90
9486;DHT22;4781;48.776;9.200;2024-03-06T14:40:01;7.20;99.90
9486;DHT22;4781;48.776;9.200;2024-03-06T14:42:31;7.20;99.90
9486;DHT22;4781;48.776;9.200;2024-03-06T14:45:01;7.10;99.90
9486;DHT22;4781;48.776;9.200;2024-03-06T14:47:32;7.20;99.90
9486;DHT22;4781;48.776;9.200;2024-03-06T14:50:00;7.20;99.90
9486;DHT22;4781;48.776;9.200;2024-03-06T14:52:29;7.20;99.90
9486;DHT22;4781;48.776;9.200;2024-03-06T14:54:57;7.20;99.90
9486;DHT22;4781;48.776;9.200;2024-03-06T14:57:26;7.20;99.90
9486;DHT22;4781;48.776;9.200;2024-03-06T14:59:54;7.20;99.90
9486;DHT22;4781;48.776;9.200;2024-03-06T15:02:22;7.20;99.90
9486;DHT22;4781;48.776;9.200;2024-03-06T15:04:51;7.20;99.90
9486;DHT22;4781;48.776;9.200;2024-03-06T15:07:19;7.20;99.90
9486;DHT22;4781;48.776;9.200;2024-03-06T15:09:48;7.10;99.90
9486;DHT22;4781;48.776;9.200;2024-03-06T15:12:16;7.10;99.90
9486;DHT22;4781;48.776;9.200;2024-03-06T15:14:45;7.20;99.90
9486;DHT22;4781;48.776;9.200;2024-03-06T15:17:13;7.20;99.90
9486;DHT22;4781;48.776;9.200;2024-03-06T15:19:42;7.20;99.90
9486;DHT22;4781;48.776;9.200;2024-03-06T15:22:10;7.10;99.90
9486;DHT22;4781;48.776;9.200;2024-03-06T15:24:39;7.10;99.90
9486;DHT22;4781;48.776;9.200;2024-03-06T15:27:07;7.10;99.90
9486;DHT22;4781;48.776;9.200;2024-03-06T15:29:36;7.10;99.90
9486;DHT22;4781;48.776;9.200;2024-03-06T15:32:05;7.10;99.90
9486;DHT22;4781;48.776;9.200;2024-03-06T15:34:33;7.10;99.90
9486;DHT22;4781;48.776;9.200;2024-03-06T15:37:01;7.10;99.90
9486;DHT22;4781;48.776;9.200;2024-03-06T15:39:30;7.20;99.90
9486;DHT22;4781;48.776;9.200;2024-03-06T15:41:58;7.20;99.90
9486;DHT22;4781;48.776;9.200;2024-03-06T15:44:27;7.10;99.90
9486;DHT22;4781;48.776;9.200;2024-03-06T15:46:55;7.20;99.90
9486;DHT22;4781;48.776;9.200;2024-03-06T15:49:24;7.20;99.90
9486;DHT22;4781;48.776;9.200;2024-03-06T15:51:53;7.10;99.90
9486;DHT22;4781;48.776;9.200;2024-03-06T15:54:22;7.20;99.90
9486;DHT22;4781;48.776;9.200;2024-03-06T15:56:51;7.20;99.90
9486;DHT22;4781;48.776;9.200;2024-03-06T15:59:19;7.20;99.90
9486;DHT22;4781;48.776;9.200;2024-03-06T16:01:48;7.20;99.90
9486;DHT22;4781;48.776;9.200;2024-03-06T16:04:16;7.20;99.90
9486;DHT22;4781;48.776;9.200;2024-03-06T16:06:44;7.20;99.90
9486;DHT22;4781;48.776;9.200;2024-03-06T16:09:13;7.20;99.90
9486;DHT22;4781;48.776;9.200;2024-03-06T16:11:42;7.20;99.90
9486;DHT22;4781;48.776;9.200;2024-03-06T16:14:11;7.30;99.90
9486;DHT22;4781;48.776;9.200;2024-03-06T16:16:43;7.30;99.90
9486;DHT22;4781;48.776;9.200;2024-03-06T16:19:12;7.20;99.90
9486;DHT22;4781;48.776;9.200;2024-03-06T16:21:42;7.20;99.90
9486;DHT22;4781;48.776;9.200;2024-03-06T16:24:11;7.20;99.90
9486;DHT22;4781;48.776;9.200;2024-03-06T16:26:39;7.20;99.90
9486;DHT22;4781;48.776;9.200;2024-03-06T16:29:09;7.20;99.90
9486;DHT22;4781;48.776;9.200;2024-03-06T16:31:37;7.20;99.90
9486;DHT22;4781;48.776;9.200;2024-03-06T16:34:06;7.20;99.90